createdAt,value
2023-04-09T00:02:36.473Z,90.62
2023-04-09T00:05:10.097Z,90.49
2023-04-09T00:07:54.123Z,90.67
2023-04-09T00:10:37.420Z,90.90
2023-04-09T00:16:26.219Z,91.52
2023-04-09T00:19:19.113Z,91.48
2023-04-09T00:22:12.237Z,91.75
2023-04-09T00:25:05.291Z,91.82
2023-04-09T00:27:47.160Z,91.74
2023-04-09T00:30:40.063Z,91.04
2023-04-09T00:33:22.833Z,91.02
2023-04-09T00:36:15.656Z,90.98
2023-04-09T00:38:48.805Z,91.13
2023-04-09T00:41:22.338Z,91.19
2023-04-09T00:44:00.401Z,91.09
2023-04-09T00:46:34.323Z,91.46
2023-04-09T00:49:07.119Z,91.56
2023-04-09T00:51:40.722Z,91.59
2023-04-09T00:54:13.997Z,92.14
2023-04-09T00:56:46.987Z,92.35
2023-04-09T00:59:19.468Z,92.55
2023-04-09T01:01:54.839Z,92.63
2023-04-09T01:04:29.828Z,92.57
2023-04-09T01:07:12.645Z,92.57
2023-04-09T01:09:56.699Z,92.11
2023-04-09T01:12:38.239Z,91.87
2023-04-09T01:15:16.523Z,92.40
2023-04-09T01:17:54.626Z,92.47
2023-04-09T01:20:38.745Z,92.85
2023-04-09T01:23:20.841Z,93.08
2023-04-09T01:26:06.058Z,93.07
2023-04-09T01:28:54.737Z,93.22
2023-04-09T01:31:31.092Z,93.34
2023-04-09T01:34:05.106Z,93.21
2023-04-09T01:36:43.458Z,93.05
2023-04-09T01:39:17.990Z,92.78
2023-04-09T01:41:54.353Z,92.46
2023-04-09T01:44:30.955Z,92.74
2023-04-09T01:47:07.219Z,93.12
2023-04-09T01:49:44.703Z,93.16
2023-04-09T01:52:17.504Z,93.27
2023-04-09T01:54:53.036Z,93.29
2023-04-09T01:57:25.804Z,92.80
2023-04-09T02:00:01.108Z,92.78
2023-04-09T02:02:48.464Z,92.90
2023-04-09T02:05:24.264Z,92.79
2023-04-09T02:08:13.977Z,92.83
2023-04-09T02:10:57.162Z,92.73
2023-04-09T02:13:34.940Z,93.18
2023-04-09T02:16:09.874Z,93.11
2023-04-09T02:18:54.586Z,92.88
2023-04-09T02:21:28.717Z,92.95
2023-04-09T02:24:12.362Z,92.88
2023-04-09T02:26:47.936Z,92.71
2023-04-09T02:29:20.692Z,92.18
2023-04-09T02:31:53.696Z,92.06
2023-04-09T02:34:26.626Z,91.82
2023-04-09T02:37:02.113Z,92.04
2023-04-09T02:39:34.643Z,91.91
2023-04-09T02:42:08.438Z,91.84
2023-04-09T02:44:41.096Z,91.79
2023-04-09T02:47:14.068Z,91.82
2023-04-09T02:49:49.645Z,91.98
2023-04-09T02:52:33.505Z,92.36
2023-04-09T02:55:16.333Z,92.12
2023-04-09T02:58:09.282Z,92.10
2023-04-09T03:00:52.051Z,92.22
2023-04-09T03:03:31.066Z,91.94
2023-04-09T03:06:08.683Z,91.74
2023-04-09T03:08:44.477Z,91.72
2023-04-09T03:11:17.435Z,92.19
2023-04-09T03:13:53.081Z,92.22
2023-04-09T03:16:27.748Z,92.17
2023-04-09T03:19:02.977Z,92.06
2023-04-09T03:21:35.733Z,92.23
2023-04-09T03:24:09.195Z,92.73
2023-04-09T03:26:42.216Z,92.88
2023-04-09T03:29:17.474Z,93.08
2023-04-09T03:32:01.000Z,93.02
2023-04-09T03:34:33.625Z,93.10
2023-04-09T03:37:13.792Z,92.89
2023-04-09T03:39:47.475Z,92.44
2023-04-09T03:42:20.368Z,92.68
2023-04-09T03:44:57.962Z,92.25
2023-04-09T03:47:38.217Z,92.26
2023-04-09T03:50:21.697Z,92.11
2023-04-09T03:52:58.781Z,92.23
2023-04-09T03:55:31.542Z,92.69
2023-04-09T03:58:05.294Z,93.06
2023-04-09T04:00:41.625Z,93.17
2023-04-09T04:03:27.682Z,93.32
2023-04-09T04:06:22.043Z,93.25
2023-04-09T04:09:00.946Z,93.09
2023-04-09T04:11:40.827Z,92.89
2023-04-09T04:14:16.868Z,92.64
2023-04-09T04:16:54.253Z,92.10
2023-04-09T04:19:46.918Z,92.25
2023-04-09T04:22:23.307Z,92.69
2023-04-09T04:25:01.365Z,92.67
2023-04-09T04:27:37.816Z,92.64
2023-04-09T04:30:21.756Z,92.21
2023-04-09T04:33:02.977Z,91.76
2023-04-09T04:35:41.198Z,91.79
2023-04-09T04:38:17.728Z,92.01
2023-04-09T04:41:01.358Z,92.18
2023-04-09T04:43:45.127Z,92.33
2023-04-09T04:46:24.150Z,92.20
2023-04-09T04:48:59.649Z,91.69
2023-04-09T04:51:33.548Z,91.96
2023-04-09T04:54:10.601Z,92.28
2023-04-09T04:56:46.856Z,92.26
2023-04-09T04:59:44.038Z,91.96
2023-04-09T05:02:19.378Z,91.53
2023-04-09T05:05:12.549Z,91.47
2023-04-09T05:07:53.100Z,90.58
2023-04-09T05:10:46.975Z,90.03
2023-04-09T05:13:30.148Z,89.70
2023-04-09T05:16:03.835Z,89.61
2023-04-09T05:18:37.410Z,89.02
2023-04-09T05:21:11.713Z,88.54
2023-04-09T05:23:46.494Z,88.17
2023-04-09T05:26:19.066Z,88.94
2023-04-09T05:28:58.689Z,89.18
2023-04-09T05:31:31.372Z,89.20
2023-04-09T05:34:08.950Z,89.14
2023-04-09T05:36:50.463Z,88.92
2023-04-09T05:39:26.686Z,88.63
2023-04-09T05:42:19.427Z,88.29
2023-04-09T05:45:18.456Z,87.86
2023-04-09T05:47:54.268Z,86.28
2023-04-09T05:50:31.831Z,85.74
2023-04-09T05:53:09.422Z,85.55
2023-04-09T05:55:44.840Z,85.61
2023-04-09T05:58:29.610Z,85.49
2023-04-09T06:01:10.335Z,85.52
2023-04-09T06:03:46.869Z,84.79
2023-04-09T06:06:30.412Z,85.05
2023-04-09T06:09:04.712Z,84.50
2023-04-09T06:11:43.513Z,84.47
2023-04-09T06:14:18.499Z,83.86
2023-04-09T06:16:51.019Z,82.68
2023-04-09T06:19:25.806Z,82.89
2023-04-09T06:21:58.622Z,82.83
2023-04-09T06:24:32.055Z,82.14
2023-04-09T06:27:05.009Z,81.37
2023-04-09T06:29:37.682Z,80.44
2023-04-09T06:32:12.143Z,79.69
2023-04-09T06:34:46.874Z,78.34
2023-04-09T06:37:21.669Z,78.63
2023-04-09T06:40:00.827Z,78.69
2023-04-09T06:42:35.422Z,79.06
2023-04-09T06:45:17.227Z,78.51
2023-04-09T06:47:50.138Z,77.64
2023-04-09T06:50:23.039Z,76.57
2023-04-09T06:52:57.783Z,75.43
2023-04-09T06:55:34.144Z,76.14
2023-04-09T06:58:07.189Z,76.86
2023-04-09T07:00:42.873Z,76.24
2023-04-09T07:03:16.119Z,76.69
2023-04-09T07:05:52.219Z,76.15
2023-04-09T07:08:25.113Z,76.18
2023-04-09T07:10:58.109Z,76.86
2023-04-09T07:13:31.405Z,77.00
2023-04-09T07:16:09.671Z,76.61
2023-04-09T07:18:42.131Z,77.19
2023-04-09T07:21:15.278Z,77.41
2023-04-09T07:23:48.181Z,76.91
2023-04-09T07:26:20.894Z,76.72
2023-04-09T07:28:56.256Z,75.50
2023-04-09T07:31:35.310Z,74.97
2023-04-09T07:34:08.998Z,74.79
2023-04-09T07:36:44.291Z,74.73
2023-04-09T07:39:21.254Z,75.16
2023-04-09T07:41:54.193Z,74.96
2023-04-09T07:44:27.200Z,75.03
2023-04-09T07:47:02.670Z,74.74
2023-04-09T07:49:40.625Z,74.93
2023-04-09T07:52:13.286Z,74.37
2023-04-09T07:54:45.828Z,73.93
2023-04-09T07:57:20.898Z,74.31
2023-04-09T07:59:54.211Z,74.88
2023-04-09T08:02:35.222Z,73.53
2023-04-09T08:05:12.294Z,73.35
2023-04-09T08:07:44.752Z,73.26
2023-04-09T08:10:17.203Z,72.52
2023-04-09T08:12:51.262Z,72.76
2023-04-09T08:15:24.263Z,72.92
2023-04-09T08:17:59.720Z,71.87
2023-04-09T08:20:45.735Z,71.46
2023-04-09T08:23:28.162Z,71.03
2023-04-09T08:26:00.722Z,70.41
2023-04-09T08:28:43.403Z,70.65
2023-04-09T08:31:26.609Z,70.48
2023-04-09T08:34:10.724Z,68.30
2023-04-09T08:36:49.986Z,67.38
2023-04-09T08:39:37.501Z,67.18
2023-04-09T08:42:16.261Z,68.19
2023-04-09T08:44:52.024Z,68.37
2023-04-09T08:47:30.560Z,69.15
2023-04-09T08:50:12.872Z,68.40
2023-04-09T08:52:50.649Z,68.46
2023-04-09T08:55:31.444Z,69.37
2023-04-09T08:58:15.604Z,69.73
2023-04-09T09:00:51.577Z,68.63
2023-04-09T09:03:53.390Z,68.16
2023-04-09T09:06:32.881Z,67.21
2023-04-09T09:09:17.096Z,67.43
2023-04-09T09:12:11.565Z,67.33
2023-04-09T09:14:44.325Z,66.77
2023-04-09T09:17:20.286Z,65.82
2023-04-09T09:19:56.913Z,66.26
2023-04-09T09:22:57.867Z,65.81
2023-04-09T09:25:51.313Z,65.47
2023-04-09T09:28:37.969Z,65.28
2023-04-09T09:31:13.449Z,64.43
2023-04-09T09:34:01.337Z,65.38
2023-04-09T09:36:37.633Z,65.46
2023-04-09T09:39:12.332Z,64.48
2023-04-09T09:41:45.957Z,64.34
2023-04-09T09:44:34.034Z,62.53
2023-04-09T09:47:15.623Z,61.07
2023-04-09T09:49:58.363Z,61.75
2023-04-09T09:52:44.629Z,62.24
2023-04-09T09:55:22.637Z,62.10
2023-04-09T09:57:57.551Z,62.34
2023-04-09T10:00:51.824Z,63.36
2023-04-09T10:03:30.857Z,63.77
2023-04-09T10:06:04.881Z,63.35
2023-04-09T10:08:44.170Z,63.18
2023-04-09T10:11:16.878Z,63.84
2023-04-09T10:13:56.984Z,63.58
2023-04-09T10:19:20.827Z,60.92
2023-04-09T10:22:04.773Z,60.37
2023-04-09T10:24:42.308Z,59.04
2023-04-09T10:27:17.707Z,58.29
2023-04-09T10:29:52.181Z,56.39
2023-04-09T10:32:28.443Z,54.23
2023-04-09T10:35:07.180Z,53.77
2023-04-09T10:37:39.941Z,53.34
2023-04-09T10:40:22.726Z,53.93
2023-04-09T10:42:57.082Z,53.26
2023-04-09T10:45:42.826Z,51.37
2023-04-09T10:48:22.942Z,46.35
2023-04-09T10:50:58.148Z,46.63
2023-04-09T10:53:42.285Z,46.61
2023-04-09T10:56:19.190Z,46.85
2023-04-09T10:58:51.963Z,45.40
2023-04-09T11:01:28.806Z,45.34
2023-04-09T11:04:22.158Z,45.89
2023-04-09T11:06:58.017Z,45.50
2023-04-09T11:09:30.522Z,44.88
2023-04-09T11:12:03.796Z,45.22
2023-04-09T11:14:39.255Z,45.80
2023-04-09T11:17:22.891Z,45.58
2023-04-09T11:20:02.629Z,45.60
2023-04-09T11:22:57.556Z,45.73
2023-04-09T11:25:40.197Z,47.75
2023-04-09T11:28:16.928Z,47.39
2023-04-09T11:30:53.501Z,45.89
2023-04-09T11:33:35.662Z,45.72
2023-04-09T11:36:09.547Z,46.38
2023-04-09T11:38:45.536Z,46.21
2023-04-09T11:41:18.159Z,43.10
2023-04-09T11:43:54.908Z,42.00
2023-04-09T11:46:28.017Z,43.29
2023-04-09T11:49:04.030Z,43.03
2023-04-09T11:51:39.753Z,44.03
2023-04-09T11:54:15.572Z,47.92
2023-04-09T11:56:55.971Z,50.57
2023-04-09T11:59:32.848Z,51.47
2023-04-09T12:02:20.683Z,52.40
2023-04-09T12:05:06.489Z,53.67
2023-04-09T12:07:42.323Z,54.77
2023-04-09T12:10:27.883Z,55.70
2023-04-09T12:13:05.010Z,56.35
2023-04-09T12:15:41.291Z,57.27
2023-04-09T12:18:17.646Z,57.23
2023-04-09T12:20:53.314Z,57.24
2023-04-09T12:23:26.128Z,57.69
2023-04-09T12:26:00.859Z,56.77
2023-04-09T12:28:35.050Z,55.58
2023-04-09T12:31:17.749Z,55.22
2023-04-09T12:33:52.916Z,54.82
2023-04-09T12:36:26.597Z,54.98
2023-04-09T12:38:59.807Z,54.86
2023-04-09T12:41:32.774Z,54.88
2023-04-09T12:44:15.618Z,54.73
2023-04-09T12:46:48.523Z,54.96
2023-04-09T12:49:31.245Z,55.83
2023-04-09T12:52:07.102Z,55.46
2023-04-09T12:54:40.522Z,55.92
2023-04-09T12:57:13.105Z,56.24
2023-04-09T12:59:49.360Z,55.48
2023-04-09T13:02:23.238Z,56.10
2023-04-09T13:04:55.680Z,55.46
2023-04-09T13:07:31.049Z,55.68
2023-04-09T13:10:06.144Z,55.34
2023-04-09T13:12:48.989Z,52.95
2023-04-09T13:15:22.128Z,52.21
2023-04-09T13:17:54.779Z,51.97
2023-04-09T13:20:27.529Z,50.95
2023-04-09T13:23:01.609Z,50.47
2023-04-09T13:25:34.091Z,50.80
2023-04-09T13:28:07.328Z,50.49
2023-04-09T13:30:39.890Z,49.66
2023-04-09T13:33:15.745Z,50.13
2023-04-09T13:35:48.475Z,50.16
2023-04-09T13:38:21.177Z,50.49
2023-04-09T13:40:56.425Z,50.76
2023-04-09T13:43:29.510Z,51.14
2023-04-09T13:46:08.508Z,50.51
2023-04-09T13:48:41.434Z,51.32
2023-04-09T13:51:14.186Z,50.87
2023-04-09T13:53:48.318Z,51.18
2023-04-09T13:56:22.070Z,50.89
2023-04-09T13:59:14.970Z,51.14
2023-04-09T14:01:57.621Z,51.02
2023-04-09T14:04:50.549Z,51.64
2023-04-09T14:07:33.356Z,51.92
2023-04-09T14:10:19.644Z,50.00
2023-04-09T14:12:55.665Z,49.56
2023-04-09T14:15:28.356Z,50.00
2023-04-09T14:18:01.053Z,49.51
2023-04-09T14:20:54.462Z,49.28
2023-04-09T14:23:28.621Z,48.61
2023-04-09T14:26:04.794Z,48.84
2023-04-09T14:28:41.943Z,49.20
2023-04-09T14:31:26.144Z,48.83
2023-04-09T14:33:59.645Z,49.55
2023-04-09T14:36:32.360Z,49.93
2023-04-09T14:39:09.555Z,50.42
2023-04-09T14:41:45.505Z,51.14
2023-04-09T14:44:21.203Z,51.44
2023-04-09T14:46:55.102Z,50.68
2023-04-09T14:49:28.121Z,50.42
2023-04-09T14:52:03.000Z,50.49
2023-04-09T14:54:35.853Z,51.25
2023-04-09T14:57:08.797Z,51.63
2023-04-09T14:59:41.538Z,51.68
2023-04-09T15:02:17.752Z,51.66
2023-04-09T15:04:52.927Z,51.82
2023-04-09T15:07:28.510Z,52.05
2023-04-09T15:10:01.215Z,51.97
2023-04-09T15:12:35.581Z,52.57
2023-04-09T15:15:11.462Z,52.44
2023-04-09T15:17:46.682Z,52.93
2023-04-09T15:20:22.801Z,53.19
2023-04-09T15:22:56.016Z,52.95
2023-04-09T15:25:32.813Z,52.61
2023-04-09T15:28:06.536Z,55.28
2023-04-09T15:30:39.335Z,56.44
2023-04-09T15:33:15.605Z,57.38
2023-04-09T15:35:52.410Z,58.46
2023-04-09T15:38:25.253Z,59.81
2023-04-09T15:40:58.820Z,60.27
2023-04-09T15:43:31.771Z,60.44
2023-04-09T15:46:13.545Z,60.13
2023-04-09T15:48:46.665Z,60.43
2023-04-09T15:51:19.367Z,60.53
2023-04-09T15:53:55.168Z,60.85
2023-04-09T15:56:27.495Z,61.34
2023-04-09T15:59:05.356Z,61.28
2023-04-09T16:01:38.109Z,61.35
2023-04-09T16:04:10.779Z,61.16
2023-04-09T16:06:43.590Z,61.21
2023-04-09T16:09:15.907Z,61.43
2023-04-09T16:11:48.486Z,61.74
2023-04-09T16:14:21.308Z,61.83
2023-04-09T16:16:54.011Z,61.97
2023-04-09T16:19:26.803Z,62.30
2023-04-09T16:21:59.662Z,62.33
2023-04-09T16:24:33.531Z,62.52
2023-04-09T16:27:09.410Z,62.83
2023-04-09T16:29:42.455Z,62.97
2023-04-09T16:32:15.186Z,63.11
2023-04-09T16:34:56.636Z,63.36
2023-04-09T16:37:29.745Z,63.58
2023-04-09T16:40:04.942Z,63.78
2023-04-09T16:42:40.937Z,64.12
2023-04-09T16:45:20.550Z,64.57
2023-04-09T16:47:56.413Z,65.03
2023-04-09T16:50:31.940Z,65.43
2023-04-09T16:53:05.061Z,65.58
2023-04-09T16:55:48.172Z,65.93
2023-04-09T16:58:23.965Z,66.10
2023-04-09T17:00:57.568Z,66.49
2023-04-09T17:03:30.314Z,66.99
2023-04-09T17:06:07.082Z,67.51
2023-04-09T17:08:40.038Z,67.82
2023-04-09T17:11:17.501Z,68.02
2023-04-09T17:13:50.538Z,68.21
2023-04-09T17:16:23.804Z,68.39
2023-04-09T17:18:59.780Z,68.72
2023-04-09T17:21:32.678Z,68.88
2023-04-09T17:24:09.000Z,69.33
2023-04-09T17:26:41.863Z,69.67
2023-04-09T17:29:14.388Z,69.99
2023-04-09T17:31:48.886Z,70.40
2023-04-09T17:34:24.265Z,70.91
2023-04-09T17:37:00.261Z,71.45
2023-04-09T17:39:37.418Z,72.39
2023-04-09T17:42:11.853Z,72.61
2023-04-09T17:44:46.222Z,72.88
2023-04-09T17:47:19.352Z,73.34
2023-04-09T17:49:53.324Z,73.64
2023-04-09T17:52:29.226Z,74.04
2023-04-09T17:55:23.532Z,74.27
2023-04-09T17:58:11.590Z,74.55
2023-04-09T18:01:07.726Z,74.62
2023-04-09T18:03:52.660Z,75.27
2023-04-09T18:06:29.368Z,75.88
2023-04-09T18:09:22.483Z,75.93
2023-04-09T18:12:00.100Z,76.15
2023-04-09T18:14:53.039Z,76.44
2023-04-09T18:17:45.931Z,76.61
2023-04-09T18:20:26.412Z,76.31
2023-04-09T18:22:59.079Z,76.58
2023-04-09T18:25:31.529Z,76.41
2023-04-09T18:28:07.724Z,77.33
2023-04-09T18:30:43.591Z,77.44
2023-04-09T18:33:18.994Z,77.41
2023-04-09T18:36:12.481Z,77.57
2023-04-09T18:39:06.649Z,77.78
2023-04-09T18:41:59.722Z,78.06
2023-04-09T18:44:52.816Z,78.38
2023-04-09T18:47:34.828Z,78.66
2023-04-09T18:50:09.639Z,78.88
2023-04-09T18:52:52.083Z,79.08
2023-04-09T18:55:24.300Z,79.40
2023-04-09T18:57:57.522Z,79.75
2023-04-09T19:00:37.456Z,79.94
2023-04-09T19:03:31.121Z,81.11
2023-04-09T19:06:27.963Z,81.76
2023-04-09T19:09:20.941Z,81.81
2023-04-09T19:12:04.967Z,82.58
2023-04-09T19:14:38.092Z,83.42
2023-04-09T19:17:13.466Z,84.32
2023-04-09T19:19:49.444Z,84.41
2023-04-09T19:22:25.323Z,84.60
2023-04-09T19:24:59.603Z,84.38
2023-04-09T19:27:54.458Z,84.28
2023-04-09T19:30:50.993Z,83.70
2023-04-09T19:33:34.754Z,83.38
2023-04-09T19:36:18.268Z,83.28
2023-04-09T19:38:56.368Z,83.44
2023-04-09T19:41:49.019Z,84.05
2023-04-09T19:44:42.351Z,84.78
2023-04-09T19:47:17.929Z,84.93
2023-04-09T19:49:59.737Z,84.79
2023-04-09T19:52:33.212Z,84.59
2023-04-09T19:55:19.134Z,84.42
2023-04-09T19:58:06.637Z,84.31
2023-04-09T20:00:42.020Z,84.39
2023-04-09T20:03:23.090Z,84.62
2023-04-09T20:05:55.801Z,84.95
2023-04-09T20:08:28.829Z,85.33
2023-04-09T20:11:22.652Z,85.80
2023-04-09T20:14:06.302Z,87.45
2023-04-09T20:16:39.257Z,88.01
2023-04-09T20:19:11.906Z,88.24
2023-04-09T20:21:53.022Z,88.93
2023-04-09T20:24:28.779Z,89.55
2023-04-09T20:27:23.627Z,89.63
2023-04-09T20:29:59.134Z,90.27
2023-04-09T20:32:31.645Z,90.07
2023-04-09T20:35:09.662Z,89.97
2023-04-09T20:37:44.800Z,89.87
2023-04-09T20:40:17.654Z,90.16
2023-04-09T20:43:00.585Z,90.18
2023-04-09T20:45:43.170Z,90.42
2023-04-09T20:48:19.025Z,90.15
2023-04-09T20:51:09.446Z,89.99
2023-04-09T20:53:42.289Z,89.83
2023-04-09T20:56:26.588Z,89.97
2023-04-09T20:58:59.809Z,89.70
2023-04-09T21:01:33.448Z,89.45
2023-04-09T21:04:06.751Z,89.36
2023-04-09T21:06:50.834Z,89.06
2023-04-09T21:09:24.735Z,89.11
2023-04-09T21:12:07.898Z,89.10
2023-04-09T21:14:42.735Z,88.80
2023-04-09T21:17:20.330Z,88.68
2023-04-09T21:20:02.999Z,88.39
2023-04-09T21:22:38.553Z,88.33
2023-04-09T21:25:13.780Z,88.06
2023-04-09T21:27:59.489Z,87.73
2023-04-09T21:30:32.871Z,87.67
2023-04-09T21:33:09.994Z,87.37
2023-04-09T21:35:54.660Z,87.04
2023-04-09T21:38:47.407Z,87.02
2023-04-09T21:41:19.880Z,86.85
2023-04-09T21:43:52.553Z,86.35
2023-04-09T21:46:25.234Z,86.01
2023-04-09T21:49:05.976Z,85.64
2023-04-09T21:51:39.916Z,85.42
2023-04-09T21:54:12.639Z,85.26
2023-04-09T21:56:55.419Z,84.76
2023-04-09T21:59:38.122Z,84.41
2023-04-09T22:02:14.057Z,84.07
2023-04-09T22:04:46.748Z,84.12
2023-04-09T22:07:30.679Z,84.00
2023-04-09T22:10:03.346Z,84.18
2023-04-09T22:12:38.761Z,83.93
2023-04-09T22:15:13.308Z,84.23
2023-04-09T22:17:53.137Z,83.82
2023-04-09T22:20:29.366Z,83.73
2023-04-09T22:23:08.938Z,83.89
2023-04-09T22:25:41.662Z,83.71
2023-04-09T22:28:18.155Z,83.80
2023-04-09T22:30:53.425Z,83.68
2023-04-09T22:33:27.907Z,83.60
2023-04-09T22:36:12.292Z,83.56
2023-04-09T22:38:55.877Z,83.00
2023-04-09T22:41:31.012Z,82.69
2023-04-09T22:44:03.839Z,82.72
2023-04-09T22:46:36.715Z,82.76
2023-04-09T22:49:09.979Z,82.48
2023-04-09T22:51:43.932Z,82.37
2023-04-09T22:54:26.429Z,82.41
2023-04-09T22:56:59.128Z,82.62
2023-04-09T23:02:14.724Z,82.79
2023-04-09T23:04:50.342Z,82.53
2023-04-09T23:07:33.447Z,82.53
2023-04-09T23:10:14.211Z,82.81
2023-04-09T23:12:46.659Z,83.07
2023-04-09T23:15:19.798Z,83.34
2023-04-09T23:17:55.650Z,83.48
2023-04-09T23:20:30.583Z,83.66
2023-04-09T23:23:06.870Z,83.86
2023-04-09T23:25:39.704Z,84.01
2023-04-09T23:28:23.488Z,84.20
2023-04-09T23:31:05.848Z,84.28
2023-04-09T23:33:38.449Z,84.55
2023-04-09T23:36:11.693Z,84.56
2023-04-09T23:38:59.012Z,84.75
2023-04-09T23:41:41.694Z,84.78
2023-04-09T23:44:34.894Z,84.85
2023-04-09T23:47:12.016Z,84.89
2023-04-09T23:49:54.789Z,85.03
2023-04-09T23:52:52.557Z,85.56
2023-04-09T23:55:28.650Z,85.70
2023-04-09T23:58:01.754Z,85.98
